Time;durP1;ratioP1;P1;durP2;ratioP2;P2;SDS_P1;SDS_P2;PMS_P1;PMS_P2;Temp;Humidity;BMP_temperature;BMP_pressure;BME280_temperature;BME280_humidity;BME280_pressure;Samples;Min_cycle;Max_cycle;Signal;HPM_P1;HPM_P2
2022/12/11 00:00:16;;;;;;;29.80;16.00;;;-1.80;99.90;;;;;;5071582;28;20021;-79
2022/12/11 00:02:42;;;;;;;34.90;17.48;;;-1.80;99.90;;;;;;5090750;28;20485;-79
2022/12/11 00:05:07;;;;;;;34.83;18.38;;;-1.90;99.90;;;;;;5090233;28;20444;-79
2022/12/11 00:07:33;;;;;;;37.40;18.33;;;-1.80;99.90;;;;;;5075071;28;20516;-79
2022/12/11 00:09:59;;;;;;;39.22;19.10;;;-1.90;99.90;;;;;;5080258;28;20024;-78
2022/12/11 00:12:25;;;;;;;37.90;19.27;;;-1.80;99.90;;;;;;5089951;28;20039;-79
2022/12/11 00:14:51;;;;;;;38.25;18.25;;;-1.90;99.90;;;;;;5089187;28;20501;-79
2022/12/11 00:17:17;;;;;;;39.00;18.63;;;-1.90;99.90;;;;;;5093770;28;20094;-79
2022/12/11 00:19:42;;;;;;;37.63;18.63;;;-1.90;99.90;;;;;;5093675;28;20505;-79
2022/12/11 00:22:08;;;;;;;33.25;17.75;;;-1.90;99.90;;;;;;5092471;28;20505;-79
2022/12/11 00:24:34;;;;;;;39.95;19.83;;;-2.00;99.90;;;;;;5093664;28;20055;-79
2022/12/11 00:26:59;;;;;;;37.42;18.38;;;-2.00;99.90;;;;;;5085763;28;20091;-79
2022/12/11 00:29:25;;;;;;;40.03;19.15;;;-2.10;99.90;;;;;;5073210;28;20498;-79
2022/12/11 00:31:51;;;;;;;38.75;18.38;;;-2.10;99.90;;;;;;5074079;28;20431;-79
2022/12/11 00:34:16;;;;;;;31.75;17.42;;;-2.00;99.90;;;;;;5073267;28;20082;-79
2022/12/11 00:36:42;;;;;;;35.00;18.05;;;-2.00;99.90;;;;;;5073587;28;20020;-79
2022/12/11 00:39:08;;;;;;;29.92;16.95;;;-2.00;99.90;;;;;;5073438;28;20048;-79
2022/12/11 00:41:34;;;;;;;34.55;17.83;;;-1.80;99.90;;;;;;5072028;28;20267;-79
2022/12/11 00:43:59;;;;;;;32.13;17.00;;;-1.90;99.90;;;;;;5072742;28;20036;-79
2022/12/11 00:46:25;;;;;;;34.90;19.50;;;-1.90;99.90;;;;;;5072938;28;20025;-80
2022/12/11 00:48:52;;;;;;;32.30;17.15;;;-2.10;99.90;;;;;;5073330;28;20493;-79
2022/12/11 00:51:18;;;;;;;34.53;16.98;;;-2.10;99.90;;;;;;5071906;28;20413;-79
2022/12/11 00:53:43;;;;;;;32.65;17.48;;;-2.10;99.90;;;;;;5073225;28;20039;-80
2022/12/11 00:56:15;;;;;;;30.83;16.98;;;-2.10;99.90;;;;;;5071696;28;20174;-80
2022/12/11 00:58:41;;;;;;;31.98;17.13;;;-2.10;99.90;;;;;;5071590;28;20119;-80
2022/12/11 01:01:08;;;;;;;33.38;16.85;;;-2.20;99.90;;;;;;5072949;28;20139;-80
2022/12/11 01:03:34;;;;;;;27.60;15.63;;;-2.20;99.90;;;;;;5071151;28;20025;-80
2022/12/11 01:06:00;;;;;;;35.35;17.80;;;-2.20;99.90;;;;;;5073417;28;20035;-80
2022/12/11 01:08:26;;;;;;;29.23;16.25;;;-2.20;99.90;;;;;;5063864;28;20112;-81
2022/12/11 01:11:01;;;;;;;29.15;16.35;;;-2.20;99.90;;;;;;5092769;28;20046;-81
2022/12/11 01:13:26;;;;;;;31.70;17.05;;;-2.30;99.90;;;;;;5091079;28;20028;-81
2022/12/11 01:15:52;;;;;;;32.95;18.45;;;-2.30;99.90;;;;;;5082330;28;20024;-81
2022/12/11 01:18:18;;;;;;;31.38;17.23;;;-2.20;99.90;;;;;;5075500;28;20028;-81
2022/12/11 01:20:43;;;;;;;35.30;18.25;;;-2.10;99.90;;;;;;5083713;28;20099;-82
2022/12/11 01:23:11;;;;;;;30.83;17.00;;;-2.20;99.90;;;;;;5072555;28;20028;-82
2022/12/11 01:25:38;;;;;;;31.98;17.17;;;-2.20;99.90;;;;;;5072168;28;20442;-82
2022/12/11 01:28:04;;;;;;;31.20;16.92;;;-2.20;99.90;;;;;;5071910;28;21019;-83
2022/12/11 01:30:30;;;;;;;32.60;17.02;;;-2.30;99.90;;;;;;5080424;28;20039;-83
2022/12/11 01:32:55;;;;;;;31.02;16.25;;;-2.20;99.90;;;;;;5092820;28;20020;-83
2022/12/11 01:35:21;;;;;;;34.33;18.17;;;-2.30;99.90;;;;;;5083330;28;20021;-83
2022/12/11 01:37:47;;;;;;;28.52;16.35;;;-2.30;99.90;;;;;;5070750;28;20566;-83
2022/12/11 01:40:17;;;;;;;31.20;16.95;;;-2.30;99.90;;;;;;5072214;28;20028;-84
2022/12/11 01:42:44;;;;;;;32.83;17.38;;;-2.20;99.90;;;;;;5077452;28;20127;-84
2022/12/11 01:45:26;;;;;;;31.08;17.30;;;-2.30;99.90;;;;;;5072420;28;20032;-84
2022/12/11 01:48:07;;;;;;;30.55;17.58;;;-2.40;99.90;;;;;;5078370;28;20759;-84
2022/12/11 01:50:38;;;;;;;30.58;17.10;;;-2.50;99.90;;;;;;5077974;28;20029;-85
2022/12/11 01:53:09;;;;;;;29.63;17.00;;;-2.50;99.90;;;;;;5072370;28;20056;-85
2022/12/11 01:55:37;;;;;;;36.55;18.77;;;-2.60;99.90;;;;;;5070993;28;20028;-86
2022/12/11 01:58:05;;;;;;;38.70;19.75;;;-2.60;99.90;;;;;;5071099;28;20033;-86
2022/12/11 02:00:31;;;;;;;32.92;19.42;;;-2.60;99.90;;;;;;5072243;28;20033;-86
2022/12/11 02:02:56;;;;;;;37.53;18.00;;;-2.50;99.90;;;;;;5072029;28;20485;-87
2022/12/11 02:05:22;;;;;;;37.92;18.77;;;-2.60;99.90;;;;;;5071545;28;20028;-87
2022/12/11 02:07:55;;;;;;;30.85;17.20;;;-2.70;99.90;;;;;;5071706;28;20479;-88
2022/12/11 02:10:46;;;;;;;30.13;18.48;;;-2.70;99.90;;;;;;5072183;28;20029;-88
2022/12/11 02:13:15;;;;;;;;;;;-2.60;99.90;;;;;;5070902;28;20024;-88
2022/12/11 02:16:17;;;;;;;34.95;18.02;;;-2.40;99.90;;;;;;5070699;28;20008;-90
2022/12/11 02:18:51;;;;;;;;;;;-2.50;99.90;;;;;;5072498;28;20020;-89
2022/12/11 02:21:24;;;;;;;34.70;17.52;;;-2.50;99.90;;;;;;5070935;28;19911;-89
2022/12/11 02:24:24;;;;;;;32.38;17.50;;;-2.50;99.90;;;;;;5059497;28;20024;-89
2022/12/11 02:27:14;;;;;;;34.22;18.52;;;-2.70;99.90;;;;;;4990653;28;20173;-90
2022/12/11 02:29:57;;;;;;;35.55;18.52;;;-2.70;99.90;;;;;;4992953;28;20089;-89
2022/12/11 02:32:28;;;;;;;38.67;19.30;;;-2.60;99.90;;;;;;4999124;28;20047;-89
2022/12/11 02:35:20;;;;;;;31.13;17.73;;;-2.70;99.90;;;;;;4974055;28;20026;-89
2022/12/11 02:37:49;;;;;;;34.80;18.25;;;-2.60;99.90;;;;;;4989783;28;20120;-90
2022/12/11 02:40:20;;;;;;;33.15;18.30;;;-2.60;99.90;;;;;;4990703;28;20106;-89
2022/12/11 02:42:47;;;;;;;38.05;19.80;;;-2.60;99.90;;;;;;4999073;28;20052;-90
2022/12/11 02:45:13;;;;;;;35.42;19.23;;;-2.50;99.90;;;;;;5000036;28;20050;-90
2022/12/11 02:47:42;;;;;;;35.47;18.67;;;-2.50;99.90;;;;;;4973516;28;20117;-89
2022/12/11 02:50:13;;;;;;;37.10;20.73;;;-2.50;99.90;;;;;;4990006;28;20088;-90
2022/12/11 02:52:41;;;;;;;39.88;21.17;;;-2.40;99.90;;;;;;4990374;28;20053;-90
2022/12/11 02:55:08;;;;;;;37.60;20.48;;;-2.50;99.90;;;;;;4973683;28;20070;-91
2022/12/11 02:58:03;;;;;;;36.33;19.63;;;-2.60;99.90;;;;;;4989939;28;20035;-90
2022/12/11 03:00:29;;;;;;;41.90;20.77;;;-2.80;99.90;;;;;;4992495;28;20030;-91
2022/12/11 03:02:56;;;;;;;41.20;20.52;;;-3.00;99.90;;;;;;5009838;28;20057;-90
2022/12/11 03:05:22;;;;;;;40.88;20.60;;;-3.10;99.90;;;;;;5046631;28;20017;-90
2022/12/11 03:07:48;;;;;;;41.40;21.20;;;-3.00;99.90;;;;;;5050727;28;20040;-90
2022/12/11 03:10:17;;;;;;;38.33;19.60;;;-2.80;99.90;;;;;;5051424;28;20028;-90
2022/12/11 03:12:47;;;;;;;38.17;19.08;;;-2.60;99.90;;;;;;5049916;28;20076;-90
2022/12/11 03:15:17;;;;;;;41.83;20.58;;;-2.70;99.90;;;;;;5050177;28;20112;-91
2022/12/11 03:18:14;;;;;;;40.40;20.88;;;-2.70;99.90;;;;;;5049880;28;20035;-91
2022/12/11 03:21:08;;;;;;;41.13;19.77;;;-2.60;99.90;;;;;;5051490;28;20075;-91
2022/12/11 03:23:52;;;;;;;42.83;21.13;;;-2.90;99.90;;;;;;5049854;28;20029;-91
2022/12/11 03:26:19;;;;;;;40.10;19.73;;;-3.10;99.90;;;;;;5062146;28;20049;-91
2022/12/11 03:29:18;;;;;;;38.72;20.40;;;-3.10;99.90;;;;;;5082928;28;20024;-90
2022/12/11 03:31:55;;;;;;;39.83;20.13;;;-3.10;99.90;;;;;;5069030;28;20123;-89
2022/12/11 03:34:34;;;;;;;38.70;20.42;;;-3.10;99.90;;;;;;5070951;28;20028;-89
2022/12/11 03:37:02;;;;;;;43.22;21.33;;;-3.30;99.90;;;;;;5071106;28;20024;-90
2022/12/11 03:39:37;;;;;;;44.20;22.38;;;-3.30;99.90;;;;;;5070841;28;20121;-90
2022/12/11 03:42:07;;;;;;;43.75;21.10;;;-3.40;99.90;;;;;;5086531;28;20023;-91
2022/12/11 03:44:35;;;;;;;38.37;19.97;;;-3.20;99.90;;;;;;5071279;28;20058;-91
2022/12/11 03:47:05;;;;;;;37.25;19.75;;;-3.00;99.90;;;;;;5071567;28;20265;-91
2022/12/11 03:49:38;;;;;;;36.90;19.05;;;-2.90;99.90;;;;;;5071019;28;20028;-90
2022/12/11 03:52:05;;;;;;;35.08;19.10;;;-2.80;99.90;;;;;;5074046;28;20024;-91
2022/12/11 03:54:32;;;;;;;35.22;19.83;;;-2.60;99.90;;;;;;5087175;28;20043;-91
2022/12/11 03:57:01;;;;;;;36.60;16.83;;;-2.60;99.90;;;;;;5076277;28;20024;-91
2022/12/11 03:59:26;;;;;;;37.10;18.15;;;-2.60;99.90;;;;;;5094381;28;20031;-91
2022/12/11 04:01:52;;;;;;;35.17;18.30;;;-2.50;99.90;;;;;;5079863;28;20017;-90
2022/12/11 04:04:18;;;;;;;34.78;17.75;;;-2.40;99.90;;;;;;5074895;28;20054;-91
2022/12/11 04:06:44;;;;;;;28.70;15.48;;;-2.60;99.90;;;;;;5074146;28;20040;-90
2022/12/11 04:09:10;;;;;;;31.98;18.35;;;-2.50;99.90;;;;;;5073381;28;20505;-91
2022/12/11 04:11:36;;;;;;;32.58;16.20;;;-2.40;99.90;;;;;;5075165;28;20028;-91
2022/12/11 04:16:49;;;;;;;31.55;14.65;;;-2.50;99.90;;;;;;5074897;28;20050;-91
2022/12/11 04:24:47;;;;;;;27.75;14.60;;;-2.70;99.90;;;;;;5075626;28;20062;-93
2022/12/11 04:27:13;;;;;;;28.67;16.15;;;-2.80;99.90;;;;;;5074772;28;20087;-90
2022/12/11 04:29:39;;;;;;;25.08;14.85;;;-2.70;99.90;;;;;;5071040;28;20437;-93
2022/12/11 04:32:05;;;;;;;23.83;14.02;;;-2.60;99.90;;;;;;5074605;28;20494;-90
2022/12/11 04:34:30;;;;;;;27.20;14.82;;;-2.60;99.90;;;;;;5074556;28;20493;-89
2022/12/11 04:36:56;;;;;;;26.73;14.48;;;-2.80;99.90;;;;;;5074289;28;20554;-90
2022/12/11 04:39:21;;;;;;;30.38;15.38;;;-2.80;99.90;;;;;;5073009;28;20035;-90
2022/12/11 04:41:47;;;;;;;27.60;16.02;;;-2.70;99.90;;;;;;5075035;28;20099;-90
2022/12/11 04:44:13;;;;;;;26.83;14.60;;;-3.20;99.90;;;;;;5077629;28;20024;-89
2022/12/11 04:46:38;;;;;;;26.15;15.35;;;-3.00;99.90;;;;;;5074508;28;20486;-89
2022/12/11 04:49:04;;;;;;;27.98;15.27;;;-2.80;99.90;;;;;;5087636;28;20040;-91
2022/12/11 04:51:30;;;;;;;28.30;17.30;;;-3.30;99.90;;;;;;5072956;28;20024;-91
2022/12/11 04:53:57;;;;;;;27.73;16.30;;;-3.40;99.90;;;;;;5074285;28;20486;-91
2022/12/11 04:56:23;;;;;;;30.52;15.98;;;-3.10;99.90;;;;;;5080409;28;20021;-92
2022/12/11 04:58:48;;;;;;;29.02;17.15;;;-3.00;99.90;;;;;;5070654;28;20023;-90
2022/12/11 05:01:19;;;;;;;24.77;14.23;;;-3.00;99.90;;;;;;5083547;28;20444;-90
2022/12/11 05:03:45;;;;;;;27.23;15.30;;;-2.90;99.90;;;;;;5076965;28;20040;-90
2022/12/11 05:06:11;;;;;;;26.33;15.02;;;-3.10;99.90;;;;;;5074195;28;20021;-90
2022/12/11 05:08:39;;;;;;;25.67;15.00;;;-3.10;99.90;;;;;;5073758;28;20033;-90
2022/12/11 05:11:08;;;;;;;27.63;15.52;;;-2.90;99.90;;;;;;5073083;28;20036;-90
2022/12/11 05:13:34;;;;;;;24.70;14.52;;;-2.90;99.90;;;;;;5072749;28;20024;-90
2022/12/11 05:16:03;;;;;;;30.25;15.85;;;-2.80;99.90;;;;;;5084847;28;20028;-90
2022/12/11 05:18:29;;;;;;;23.77;14.63;;;-2.90;99.90;;;;;;5076950;28;20032;-91
2022/12/11 05:21:00;;;;;;;23.30;13.88;;;-2.90;99.90;;;;;;5074221;28;20024;-92
2022/12/11 05:23:27;;;;;;;24.88;13.93;;;-2.80;99.90;;;;;;5073207;28;20024;-91
2022/12/11 05:25:57;;;;;;;25.20;15.45;;;-3.00;99.90;;;;;;5074347;28;20055;-91
2022/12/11 05:28:24;;;;;;;23.05;14.20;;;-3.10;99.90;;;;;;5073866;28;20025;-91
2022/12/11 05:31:04;;;;;;;29.67;16.35;;;-3.20;99.90;;;;;;5075007;28;20028;-93
2022/12/11 05:33:30;;;;;;;24.23;14.15;;;-3.10;99.90;;;;;;5061984;28;20095;-93
2022/12/11 05:35:56;;;;;;;22.20;13.98;;;-3.00;99.90;;;;;;5073575;28;20020;-91
2022/12/11 05:38:22;;;;;;;25.40;14.57;;;-3.00;99.90;;;;;;5074450;28;20025;-93
2022/12/11 05:41:15;;;;;;;27.40;14.55;;;-2.90;99.90;;;;;;5074587;28;20111;-89
2022/12/11 05:43:41;;;;;;;27.88;15.30;;;-2.90;99.90;;;;;;5085759;28;20111;-91
2022/12/11 05:46:19;;;;;;;26.73;14.90;;;-2.90;99.90;;;;;;5074805;28;20032;-91
2022/12/11 05:48:46;;;;;;;24.98;13.93;;;-2.90;99.90;;;;;;5073492;28;20095;-91
2022/12/11 05:51:13;;;;;;;24.13;13.80;;;-2.80;99.90;;;;;;5093748;28;20055;-92
2022/12/11 05:53:40;;;;;;;23.25;13.63;;;-2.70;99.90;;;;;;5078123;28;20035;-90
2022/12/11 05:56:10;;;;;;;21.52;13.77;;;-2.70;99.90;;;;;;5072931;28;20082;-90
2022/12/11 05:58:35;;;;;;;23.30;13.52;;;-2.70;99.90;;;;;;5072944;28;20043;-89
2022/12/11 06:01:06;;;;;;;24.98;14.65;;;-2.90;99.90;;;;;;5072914;28;20052;-91
2022/12/11 06:03:32;;;;;;;24.63;12.93;;;-3.00;99.90;;;;;;5071577;28;20125;-90
2022/12/11 06:06:01;;;;;;;21.67;12.30;;;-2.90;99.90;;;;;;5072367;28;20513;-90
2022/12/11 06:08:27;;;;;;;25.73;14.27;;;-3.00;99.90;;;;;;5060269;28;20029;-90
2022/12/11 06:10:53;;;;;;;26.15;14.55;;;-2.90;99.90;;;;;;5072609;28;20021;-90
2022/12/11 06:13:19;;;;;;;28.58;14.60;;;-2.80;99.90;;;;;;5071534;28;20567;-90
2022/12/11 06:15:44;;;;;;;24.50;13.98;;;-2.90;99.90;;;;;;5072371;28;20513;-90
2022/12/11 06:18:10;;;;;;;24.80;13.43;;;-3.00;99.90;;;;;;5072848;28;20072;-90
2022/12/11 06:20:36;;;;;;;23.55;13.63;;;-3.00;99.90;;;;;;5071894;28;20032;-92
2022/12/11 06:23:02;;;;;;;23.85;12.90;;;-2.90;99.90;;;;;;5073233;28;20024;-92
2022/12/11 06:25:28;;;;;;;25.33;13.95;;;-2.90;99.90;;;;;;5073007;28;20510;-92
2022/12/11 06:27:54;;;;;;;25.13;13.75;;;-2.90;99.90;;;;;;5071737;28;20059;-92
2022/12/11 06:30:20;;;;;;;21.83;13.00;;;-2.80;99.90;;;;;;5073111;28;20029;-91
2022/12/11 06:32:46;;;;;;;23.45;12.82;;;-2.80;99.90;;;;;;5072907;28;20544;-91
2022/12/11 06:35:12;;;;;;;24.65;13.07;;;-2.90;99.90;;;;;;5072951;28;20036;-92
2022/12/11 06:37:41;;;;;;;24.23;13.32;;;-2.90;99.90;;;;;;5071296;28;20024;-91
2022/12/11 06:40:10;;;;;;;24.10;13.82;;;-2.90;99.90;;;;;;5072266;28;20016;-90
2022/12/11 06:42:36;;;;;;;26.05;13.73;;;-2.90;99.90;;;;;;5076127;28;20008;-91
2022/12/11 06:45:02;;;;;;;23.15;12.10;;;-3.00;99.90;;;;;;5071676;28;20054;-91
2022/12/11 06:47:29;;;;;;;22.73;13.55;;;-2.90;99.90;;;;;;5072307;28;20027;-92
2022/12/11 06:49:55;;;;;;;22.05;12.73;;;-2.90;99.90;;;;;;5072247;28;20035;-91
2022/12/11 06:52:23;;;;;;;23.02;13.10;;;-2.90;99.90;;;;;;5072163;28;20123;-90
2022/12/11 06:54:49;;;;;;;22.95;13.48;;;-2.90;99.90;;;;;;5070860;28;20028;-90
2022/12/11 06:57:15;;;;;;;23.42;13.23;;;-3.00;99.90;;;;;;5071337;28;20501;-91
2022/12/11 06:59:41;;;;;;;20.95;13.10;;;-2.90;99.90;;;;;;5071236;28;20024;-92
2022/12/11 07:02:12;;;;;;;23.65;12.38;;;-2.90;99.90;;;;;;5071929;28;20074;-92
2022/12/11 07:04:37;;;;;;;24.60;13.02;;;-2.90;99.90;;;;;;5072309;28;20035;-92
2022/12/11 07:07:03;;;;;;;23.02;13.68;;;-2.80;99.90;;;;;;5070888;28;20036;-91
2022/12/11 07:09:29;;;;;;;22.52;12.85;;;-2.70;99.90;;;;;;5061262;28;20051;-91
2022/12/11 07:11:54;;;;;;;24.13;12.85;;;-2.70;99.90;;;;;;5072810;28;20028;-92
2022/12/11 07:14:20;;;;;;;24.17;13.93;;;-2.90;99.90;;;;;;5072309;28;20078;-93
2022/12/11 07:16:46;;;;;;;25.17;13.15;;;-3.00;99.90;;;;;;5072291;28;20032;-92
2022/12/11 07:19:12;;;;;;;21.65;12.95;;;-2.90;99.90;;;;;;5072655;28;20025;-92
2022/12/11 07:21:37;;;;;;;20.55;12.15;;;-2.90;99.90;;;;;;5072471;28;20016;-92
2022/12/11 07:24:03;;;;;;;22.70;12.80;;;-3.00;99.90;;;;;;5072365;28;20024;-92
2022/12/11 07:26:29;;;;;;;21.40;12.77;;;-3.00;99.90;;;;;;5070950;28;20052;-92
2022/12/11 07:28:59;;;;;;;21.20;11.80;;;-2.90;99.90;;;;;;5072880;28;20020;-93
2022/12/11 07:31:26;;;;;;;20.45;12.18;;;-2.80;99.90;;;;;;5071705;28;20047;-92
2022/12/11 07:33:57;;;;;;;21.13;12.40;;;-2.90;99.90;;;;;;5083082;28;20043;-92
2022/12/11 07:36:24;;;;;;;23.08;12.80;;;-2.90;99.90;;;;;;5086310;28;20032;-92
2022/12/11 07:38:50;;;;;;;20.33;12.23;;;-2.70;99.90;;;;;;5071996;28;20052;-92
2022/12/11 07:41:16;;;;;;;19.63;12.60;;;-2.70;99.90;;;;;;5072298;28;20211;-92
2022/12/11 07:43:42;;;;;;;19.15;13.13;;;-2.80;99.90;;;;;;5089131;28;20020;-92
2022/12/11 07:46:15;;;;;;;18.77;11.15;;;-2.90;99.90;;;;;;5073743;28;20024;-92
2022/12/11 07:48:43;;;;;;;19.55;11.82;;;-2.90;99.90;;;;;;5072474;28;20263;-92
2022/12/11 07:51:14;;;;;;;22.33;12.73;;;-2.70;99.90;;;;;;5071293;28;20084;-93
2022/12/11 07:53:41;;;;;;;20.45;12.23;;;-2.70;99.90;;;;;;5072173;28;20020;-92
2022/12/11 07:56:07;;;;;;;20.02;12.32;;;-2.70;99.90;;;;;;5071459;28;20070;-92
2022/12/11 07:58:33;;;;;;;24.67;14.13;;;-2.60;99.90;;;;;;5084828;28;20051;-93
2022/12/11 08:00:58;;;;;;;21.60;13.05;;;-2.60;99.90;;;;;;5072188;28;20032;-92
2022/12/11 08:03:24;;;;;;;23.27;12.93;;;-2.60;99.90;;;;;;5085516;28;20513;-92
2022/12/11 08:05:51;;;;;;;20.33;12.35;;;-2.50;99.90;;;;;;5071703;28;20085;-92
2022/12/11 08:08:17;;;;;;;18.17;11.65;;;-2.50;99.90;;;;;;5073884;28;20020;-92
2022/12/11 08:10:43;;;;;;;20.05;12.82;;;-2.50;99.90;;;;;;5071317;28;20081;-92
2022/12/11 08:13:09;;;;;;;22.08;13.00;;;-2.40;99.90;;;;;;5071644;28;20025;-91
2022/12/11 08:15:35;;;;;;;20.38;12.43;;;-2.30;99.90;;;;;;5071971;28;20032;-92
2022/12/11 08:18:01;;;;;;;22.77;13.15;;;-2.30;99.90;;;;;;5072151;28;20028;-92
2022/12/11 08:20:27;;;;;;;21.27;13.30;;;-2.30;99.90;;;;;;5079242;28;20031;-92
2022/12/11 08:22:52;;;;;;;24.15;13.75;;;-2.20;99.90;;;;;;5078278;28;20024;-91
2022/12/11 08:25:18;;;;;;;27.27;14.98;;;-2.30;99.90;;;;;;5068810;28;20021;-89
2022/12/11 08:27:44;;;;;;;23.17;14.25;;;-2.40;99.90;;;;;;5069787;28;20047;-91
2022/12/11 08:30:10;;;;;;;25.33;15.05;;;-2.20;99.90;;;;;;5070356;28;20029;-89
2022/12/11 08:32:36;;;;;;;23.95;13.82;;;-2.20;99.90;;;;;;5075374;28;20071;-90
2022/12/11 08:35:02;;;;;;;24.15;15.00;;;-2.10;99.90;;;;;;5087727;28;20056;-88
2022/12/11 08:37:28;;;;;;;24.50;13.75;;;-2.10;99.90;;;;;;5079209;28;20016;-89
2022/12/11 08:39:54;;;;;;;25.65;14.52;;;-2.00;99.90;;;;;;5072563;28;20032;-89
2022/12/11 08:42:20;;;;;;;24.80;14.00;;;-2.00;99.90;;;;;;5073825;28;20032;-89
2022/12/11 08:44:45;;;;;;;25.77;14.48;;;-1.90;99.90;;;;;;5073496;28;20100;-89
2022/12/11 08:47:11;;;;;;;22.80;14.00;;;-1.80;99.90;;;;;;5071793;28;20048;-88
2022/12/11 08:49:37;;;;;;;26.30;13.90;;;-1.80;99.90;;;;;;5072335;28;20040;-89
2022/12/11 08:52:04;;;;;;;22.63;13.88;;;-1.80;99.90;;;;;;5072707;28;20509;-89
2022/12/11 08:54:30;;;;;;;27.45;13.63;;;-1.80;99.90;;;;;;5073120;28;20024;-89
2022/12/11 08:56:56;;;;;;;22.08;13.93;;;-1.70;99.90;;;;;;5073402;28;20107;-90
2022/12/11 08:59:22;;;;;;;24.15;12.95;;;-1.60;99.90;;;;;;5072818;28;20028;-89
2022/12/11 09:01:48;;;;;;;22.02;13.02;;;-1.80;99.90;;;;;;5071404;28;20016;-90
2022/12/11 09:04:13;;;;;;;24.52;13.75;;;-1.60;99.90;;;;;;5073089;28;20378;-90
2022/12/11 09:06:39;;;;;;;23.58;13.55;;;-1.60;99.90;;;;;;5073383;28;20028;-85
2022/12/11 09:09:05;;;;;;;25.23;14.57;;;-1.70;99.90;;;;;;5073439;28;20028;-91
2022/12/11 09:11:34;;;;;;;22.00;13.55;;;-1.80;99.90;;;;;;5074883;28;20016;-91
2022/12/11 09:14:01;;;;;;;26.35;13.95;;;-1.70;99.90;;;;;;5072992;28;20119;-91
2022/12/11 09:16:27;;;;;;;24.65;14.20;;;-1.60;99.90;;;;;;5071985;28;20028;-91
2022/12/11 09:18:56;;;;;;;23.90;14.18;;;-1.50;99.90;;;;;;5072498;28;20039;-91
2022/12/11 09:21:25;;;;;;;24.95;15.40;;;-1.60;99.90;;;;;;5083121;28;20052;-92
2022/12/11 09:23:56;;;;;;;24.90;14.65;;;-1.60;99.90;;;;;;5071252;28;20032;-91
2022/12/11 09:26:22;;;;;;;27.05;14.88;;;-1.40;99.90;;;;;;5074096;28;20051;-92
2022/12/11 09:28:52;;;;;;;23.17;14.85;;;-1.40;99.90;;;;;;5073694;28;20055;-92
2022/12/11 09:31:36;;;;;;;26.10;15.85;;;-1.30;99.90;;;;;;5074092;28;20013;-91
2022/12/11 09:34:05;;;;;;;27.83;16.33;;;-1.30;99.90;;;;;;5072725;28;20029;-92
2022/12/11 09:36:31;;;;;;;30.17;16.75;;;-1.30;99.90;;;;;;5071496;28;20490;-92
2022/12/11 09:39:05;;;;;;;25.98;15.55;;;-1.20;99.90;;;;;;5067774;28;20021;-92
2022/12/11 09:41:36;;;;;;;30.73;16.92;;;-1.00;99.90;;;;;;5073229;28;20017;-92
2022/12/11 09:44:14;;;;;;;29.40;17.17;;;-0.90;99.90;;;;;;5078515;28;20104;-88
2022/12/11 09:46:41;;;;;;;28.27;16.95;;;-0.80;99.90;;;;;;5070237;28;20013;-88
2022/12/11 09:49:26;;;;;;;32.00;18.35;;;-0.90;99.90;;;;;;5061681;28;20036;-88
2022/12/11 09:52:16;;;;;;;31.08;18.20;;;-0.80;99.90;;;;;;5068645;28;20017;-88
2022/12/11 09:54:52;;;;;;;31.85;18.17;;;-0.60;99.90;;;;;;5057254;28;20021;-88
2022/12/11 09:57:30;;;;;;;34.78;19.75;;;-0.60;99.90;;;;;;5069159;28;20021;-88
2022/12/11 09:59:59;;;;;;;33.17;19.60;;;-0.40;99.90;;;;;;5071849;28;20028;-89
2022/12/11 10:02:33;;;;;;;36.83;19.85;;;-0.50;99.90;;;;;;5070452;28;20024;-89
2022/12/11 10:05:30;;;;;;;34.35;20.50;;;-0.90;99.90;;;;;;5071612;28;20028;-89
2022/12/11 10:08:17;;;;;;;33.85;20.17;;;-0.80;99.90;;;;;;5061904;28;20032;-89
2022/12/11 10:11:14;;;;;;;35.97;20.30;;;-0.80;99.90;;;;;;5070902;28;20550;-89
2022/12/11 10:14:09;;;;;;;34.53;21.27;;;-0.80;99.90;;;;;;4991358;28;20033;-90
2022/12/11 10:16:40;;;;;;;33.25;20.35;;;-0.60;99.90;;;;;;4991599;28;20101;-90
2022/12/11 10:19:20;;;;;;;36.35;21.25;;;-0.20;99.90;;;;;;5001032;28;20025;-91
2022/12/11 10:21:50;;;;;;;36.53;21.50;;;-0.50;99.90;;;;;;4999007;28;20102;-92
2022/12/11 10:24:35;;;;;;;34.30;20.23;;;-0.40;99.90;;;;;;4991360;28;20890;-92
2022/12/11 10:27:18;;;;;;;32.80;19.20;;;-0.20;99.90;;;;;;4963492;28;20321;-92
2022/12/11 10:29:45;;;;;;;33.65;20.27;;;-0.10;99.90;;;;;;4999444;28;20030;-92
2022/12/11 10:32:23;;;;;;;36.72;21.08;;;-0.20;99.90;;;;;;4993510;28;20125;-92
2022/12/11 10:35:00;;;;;;;35.92;20.67;;;-0.10;99.90;;;;;;4976081;28;20022;-92
2022/12/11 10:37:26;;;;;;;38.38;21.50;;;-0.10;99.90;;;;;;4983320;28;20034;-90
2022/12/11 10:39:51;;;;;;;40.28;22.73;;;-0.20;99.90;;;;;;5000297;28;20546;-88
2022/12/11 10:42:21;;;;;;;34.88;21.58;;;-0.20;99.90;;;;;;4994368;28;20022;-89
2022/12/11 10:45:02;;;;;;;34.42;21.40;;;0.00;99.90;;;;;;4972580;28;20037;-86
2022/12/11 10:47:28;;;;;;;37.50;22.63;;;0.10;99.90;;;;;;4980432;28;20031;-90
2022/12/11 10:49:59;;;;;;;31.52;20.10;;;0.30;99.90;;;;;;5019362;28;20279;-89
2022/12/11 10:52:27;;;;;;;27.65;18.63;;;0.60;99.90;;;;;;5051876;28;20032;-90
2022/12/11 10:55:00;;;;;;;29.27;18.33;;;0.70;99.90;;;;;;5051923;28;20039;-91
2022/12/11 10:57:52;;;;;;;29.48;18.40;;;0.80;99.90;;;;;;5064003;28;20036;-90
2022/12/11 11:00:37;;;;;;;30.23;17.33;;;0.60;99.90;;;;;;5049167;28;20032;-89
2022/12/11 11:03:05;;;;;;;29.85;18.35;;;0.60;99.90;;;;;;5053146;28;20024;-91
2022/12/11 11:05:36;;;;;;;28.98;16.80;;;0.90;99.90;;;;;;5056263;28;20021;-92
2022/12/11 11:08:22;;;;;;;24.73;15.68;;;0.70;99.90;;;;;;5048762;28;20024;-91
2022/12/11 11:10:59;;;;;;;23.20;14.55;;;1.00;99.90;;;;;;5051311;28;20063;-85
2022/12/11 11:13:28;;;;;;;21.88;13.95;;;0.90;99.90;;;;;;5048867;28;20111;-91
2022/12/11 11:16:11;;;;;;;21.38;14.35;;;0.80;99.90;;;;;;5050590;28;20043;-90
2022/12/11 11:18:39;;;;;;;24.38;14.88;;;0.90;99.90;;;;;;5049973;28;20025;-90
2022/12/11 11:21:05;;;;;;;21.27;14.05;;;0.90;99.90;;;;;;5049828;28;20024;-90
2022/12/11 11:23:33;;;;;;;24.05;15.25;;;0.90;99.90;;;;;;5050819;28;20502;-90
2022/12/11 11:26:01;;;;;;;19.98;13.40;;;1.00;99.90;;;;;;5057202;28;20049;-90
2022/12/11 11:28:34;;;;;;;20.38;12.95;;;1.20;99.90;;;;;;5070775;28;20035;-89
2022/12/11 11:31:04;;;;;;;20.30;13.73;;;1.10;99.90;;;;;;5071142;28;20085;-90
2022/12/11 11:33:31;;;;;;;21.80;13.50;;;1.20;99.90;;;;;;5071433;28;20024;-90
2022/12/11 11:36:04;;;;;;;17.05;12.13;;;1.10;99.90;;;;;;5070925;28;20032;-90
2022/12/11 11:38:38;;;;;;;20.35;12.73;;;1.00;99.90;;;;;;5071362;28;20016;-90
2022/12/11 11:41:22;;;;;;;18.73;12.25;;;1.20;99.90;;;;;;5069628;28;20025;-90
2022/12/11 11:43:51;;;;;;;17.55;11.43;;;1.30;99.90;;;;;;5070482;28;20170;-90
2022/12/11 11:46:42;;;;;;;20.52;13.85;;;1.30;99.90;;;;;;5069563;28;20032;-90
2022/12/11 11:49:35;;;;;;;19.48;12.57;;;1.40;99.90;;;;;;5070503;28;20024;-90
2022/12/11 11:52:16;;;;;;;19.02;12.57;;;1.50;99.90;;;;;;5071033;28;20039;-90
2022/12/11 11:55:12;;;;;;;18.45;11.85;;;1.50;99.90;;;;;;5070803;28;20020;-90
2022/12/11 11:57:44;;;;;;;21.10;13.02;;;1.50;99.90;;;;;;5067766;28;20037;-90
2022/12/11 12:00:19;;;;;;;20.08;13.35;;;1.40;99.90;;;;;;5070768;28;20112;-90
2022/12/11 12:02:53;;;;;;;19.58;12.55;;;1.60;99.90;;;;;;5069595;28;20405;-90
2022/12/11 12:05:29;;;;;;;21.95;13.38;;;1.50;99.90;;;;;;5071090;28;20021;-89
2022/12/11 12:08:16;;;;;;;20.58;13.38;;;1.50;99.90;;;;;;5062527;28;20032;-88
2022/12/11 12:10:51;;;;;;;22.30;13.93;;;1.50;99.90;;;;;;5064937;28;20578;-87
2022/12/11 12:13:35;;;;;;;25.35;13.43;;;1.90;99.90;;;;;;5077714;28;20165;-87
2022/12/11 12:16:01;;;;;;;20.08;13.18;;;1.90;99.90;;;;;;5073982;28;20063;-87
2022/12/11 12:18:30;;;;;;;19.55;12.95;;;1.90;99.90;;;;;;5088054;28;20021;-88
2022/12/11 12:21:20;;;;;;;20.15;13.32;;;1.90;99.90;;;;;;5074021;28;20048;-87
2022/12/11 12:24:13;;;;;;;20.38;13.05;;;1.80;99.90;;;;;;5072615;28;20059;-87
2022/12/11 12:26:50;;;;;;;20.42;13.18;;;1.80;99.90;;;;;;5073773;28;20044;-86
2022/12/11 12:29:47;;;;;;;19.45;13.40;;;2.00;99.90;;;;;;5074084;28;20103;-86
2022/12/11 12:32:34;;;;;;;21.48;13.55;;;2.00;99.90;;;;;;5072651;28;20024;-85
2022/12/11 12:35:27;;;;;;;20.77;12.90;;;1.90;99.90;;;;;;5073570;28;20133;-85
2022/12/11 12:38:04;;;;;;;19.70;12.85;;;2.10;99.90;;;;;;5073582;28;20058;-85
2022/12/11 12:40:54;;;;;;;16.10;10.85;;;2.20;99.90;;;;;;5074267;28;20036;-85
2022/12/11 12:43:46;;;;;;;18.65;12.18;;;2.30;99.90;;;;;;5074451;28;20023;-84
2022/12/11 12:46:29;;;;;;;17.15;11.75;;;2.20;99.90;;;;;;5068211;28;20037;-84
2022/12/11 12:48:57;;;;;;;19.52;12.85;;;2.50;99.90;;;;;;5072116;28;20024;-84
2022/12/11 12:51:24;;;;;;;21.25;12.98;;;2.50;99.90;;;;;;5073264;28;20043;-84
2022/12/11 12:53:56;;;;;;;20.27;13.20;;;2.40;99.90;;;;;;5073528;28;20112;-83